EKCH/CPH METAR and TAF weather

Enter ICAO airport designator
Station Type Date Time Source
EKCH METAR 2021/02/24 16:50 UTC NOAA

EKCH 241650Z AUTO 24013KT 9999 BKN080/// 11/07 Q1024 NOSIG


Station Type Date Time Source
EKCH Decoded METAR 2021/02/24 16:50 UTC NOAA

Koebenhavn / Kastrup, Denmark (EKCH) 55-37N 012-39E 5M
Feb 24, 2021 - 11:50 AM EST / 2021.02.24 1650 UTC
Wind: from the WSW (240 degrees) at 15 MPH (13 KT):0
Visibility: greater than 7 mile(s):0
Sky conditions: mostly cloudy
Temperature: 51 F (11 C)
Dew Point: 44 F (7 C)
Relative Humidity: 76%
Pressure (altimeter): 30.24 in. Hg (1024 hPa)
ob: EKCH 241650Z AUTO 24013KT 9999 BKN080/// 11/07 Q1024 NOSIG
cycle: 17

Station Type Date Time Source
EKCH TAF 2021/02/24 12:30 UTC NOAA

TAF EKCH 241105Z 2412/2512 22012KT 9999 FEW040
TEMPO 2419/2507 3000 BR

Example: see airport list